createdAt,value
2017-08-02T00:00:58.342Z,0
2017-08-02T00:01:59.078Z,0
2017-08-02T00:02:59.811Z,0
2017-08-02T00:04:00.548Z,0
2017-08-02T00:05:01.291Z,0
2017-08-02T00:06:02.032Z,0
2017-08-02T00:07:03.130Z,0
2017-08-02T00:08:03.857Z,0
2017-08-02T00:09:04.602Z,0
2017-08-02T00:10:05.422Z,0
2017-08-02T00:11:06.154Z,0
2017-08-02T00:12:07.311Z,0
2017-08-02T00:13:08.108Z,0
2017-08-02T00:14:08.870Z,0
2017-08-02T00:15:09.588Z,0
2017-08-02T00:16:10.336Z,0
2017-08-02T00:17:11.413Z,0
2017-08-02T00:18:12.146Z,0
2017-08-02T00:19:12.881Z,0
2017-08-02T00:20:13.709Z,0
2017-08-02T00:21:14.454Z,0
2017-08-02T00:22:15.434Z,0
2017-08-02T00:23:16.170Z,0
2017-08-02T00:24:16.919Z,0
2017-08-02T00:25:17.728Z,0
2017-08-02T00:26:18.491Z,0
2017-08-02T00:27:19.481Z,0
2017-08-02T00:28:20.218Z,0
2017-08-02T00:29:20.974Z,0
2017-08-02T00:30:21.791Z,0
2017-08-02T00:31:22.529Z,0
2017-08-02T00:32:23.508Z,0
2017-08-02T00:33:24.240Z,0
2017-08-02T00:34:25.090Z,0
2017-08-02T00:35:25.851Z,0
2017-08-02T00:36:26.644Z,0
2017-08-02T00:37:27.373Z,0
2017-08-02T00:38:28.110Z,0
2017-08-02T00:39:28.899Z,0
2017-08-02T00:40:30.003Z,0
2017-08-02T00:41:30.797Z,0
2017-08-02T00:42:31.632Z,0
2017-08-02T00:43:32.373Z,0
2017-08-02T00:44:33.106Z,0
2017-08-02T00:45:34.246Z,0
2017-08-02T00:46:34.983Z,0
2017-08-02T00:47:35.783Z,0
2017-08-02T00:48:36.580Z,0
2017-08-02T00:49:37.404Z,0
2017-08-02T00:50:38.572Z,0
2017-08-02T00:51:39.299Z,0
2017-08-02T00:52:40.131Z,0
2017-08-02T00:53:40.946Z,0
2017-08-02T00:54:41.683Z,0
2017-08-02T00:55:42.899Z,0
2017-08-02T00:56:43.633Z,0
2017-08-02T00:57:44.442Z,0
2017-08-02T00:58:45.173Z,0
2017-08-02T00:59:45.974Z,0
2017-08-02T01:00:46.796Z,0
2017-08-02T01:01:47.616Z,0
2017-08-02T01:02:48.444Z,0
2017-08-02T01:03:49.290Z,0
2017-08-02T01:04:50.511Z,0
2017-08-02T01:05:51.785Z,0
2017-08-02T01:06:52.562Z,0
2017-08-02T01:07:53.295Z,0
2017-08-02T01:08:54.106Z,0
2017-08-02T01:09:54.925Z,0
2017-08-02T01:10:56.066Z,0
2017-08-02T01:11:56.797Z,0
2017-08-02T01:12:57.529Z,0
2017-08-02T01:13:58.274Z,0
2017-08-02T01:14:59.017Z,0
2017-08-02T01:15:59.843Z,0
2017-08-02T01:17:00.928Z,0
2017-08-02T01:18:01.667Z,0
2017-08-02T01:19:02.406Z,0
2017-08-02T01:20:03.226Z,0
2017-08-02T01:21:03.972Z,0
2017-08-02T01:22:04.949Z,0
2017-08-02T01:23:05.679Z,0
2017-08-02T01:24:06.418Z,0
2017-08-02T01:25:07.168Z,0
2017-08-02T01:26:07.919Z,0
2017-08-02T01:27:08.863Z,0
2017-08-02T01:28:09.616Z,0
2017-08-02T01:29:10.438Z,0
2017-08-02T01:30:11.180Z,0
2017-08-02T01:31:11.957Z,0
2017-08-02T01:32:13.091Z,0
2017-08-02T01:33:13.902Z,0
2017-08-02T01:34:14.633Z,0
2017-08-02T01:35:15.358Z,0
2017-08-02T01:36:16.089Z,0
2017-08-02T01:37:16.890Z,0
2017-08-02T01:38:17.721Z,0
2017-08-02T01:39:18.498Z,0
2017-08-02T01:40:19.579Z,0
2017-08-02T01:41:20.327Z,0
2017-08-02T01:42:21.145Z,0
2017-08-02T01:43:21.971Z,0
2017-08-02T01:44:22.756Z,0
2017-08-02T01:45:23.839Z,0
2017-08-02T01:46:24.641Z,0
2017-08-02T01:47:25.449Z,0
2017-08-02T01:48:26.204Z,0
2017-08-02T01:49:27.005Z,0
2017-08-02T01:50:27.817Z,0
2017-08-02T01:51:28.958Z,0
2017-08-02T01:52:29.704Z,0
2017-08-02T01:53:30.430Z,0
2017-08-02T01:54:31.163Z,0
2017-08-02T01:55:31.982Z,0
2017-08-02T01:56:33.074Z,0
2017-08-02T01:57:33.898Z,0
2017-08-02T01:58:34.652Z,0
2017-08-02T01:59:35.401Z,0
2017-08-02T02:00:36.138Z,0
2017-08-02T02:01:37.220Z,0
2017-08-02T02:02:37.996Z,0
2017-08-02T02:03:38.788Z,0
2017-08-02T02:04:39.605Z,0
2017-08-02T02:05:40.397Z,0
2017-08-02T02:06:41.532Z,0
2017-08-02T02:07:42.331Z,0
2017-08-02T02:08:43.069Z,0
2017-08-02T02:09:43.887Z,0
2017-08-02T02:10:44.635Z,0
2017-08-02T02:11:45.474Z,0
2017-08-02T02:12:46.399Z,0
2017-08-02T02:13:47.156Z,0
2017-08-02T02:14:47.965Z,0
2017-08-02T02:15:48.770Z,0
2017-08-02T02:16:49.578Z,0
2017-08-02T02:17:50.696Z,0
2017-08-02T02:18:51.523Z,0
2017-08-02T02:19:52.254Z,0
2017-08-02T02:20:53.070Z,0
2017-08-02T02:21:53.881Z,0
2017-08-02T02:22:55.081Z,0
2017-08-02T02:23:55.829Z,0
2017-08-02T02:24:56.645Z,0
2017-08-02T02:25:57.451Z,0
2017-08-02T02:26:58.193Z,0
2017-08-02T02:27:59.334Z,0
2017-08-02T02:29:00.142Z,0
2017-08-02T02:30:00.938Z,0
2017-08-02T02:31:01.683Z,0
2017-08-02T02:32:02.492Z,0
2017-08-02T02:33:03.585Z,0
2017-08-02T02:34:04.365Z,0
2017-08-02T02:35:05.221Z,0
2017-08-02T02:36:05.927Z,0
2017-08-02T02:37:06.680Z,0
2017-08-02T02:38:07.874Z,0
2017-08-02T02:39:08.604Z,0
2017-08-02T02:40:09.409Z,0
2017-08-02T02:41:10.222Z,0
2017-08-02T02:42:11.038Z,0
2017-08-02T02:43:12.136Z,0
2017-08-02T02:44:12.937Z,0
2017-08-02T02:45:13.747Z,0
2017-08-02T02:46:14.575Z,0
2017-08-02T02:47:15.312Z,0
2017-08-02T02:48:16.402Z,0
2017-08-02T02:49:17.133Z,0
2017-08-02T02:50:17.873Z,0
2017-08-02T02:51:18.683Z,0
2017-08-02T02:52:19.522Z,0
2017-08-02T02:53:20.653Z,0
2017-08-02T02:54:21.475Z,0
2017-08-02T02:55:22.208Z,0
2017-08-02T02:56:22.955Z,0
2017-08-02T02:57:23.686Z,0
2017-08-02T02:58:24.838Z,0
2017-08-02T02:59:25.568Z,0
2017-08-02T03:00:26.307Z,0
2017-08-02T03:01:27.128Z,0
2017-08-02T03:02:27.944Z,0
2017-08-02T03:03:28.887Z,0
2017-08-02T03:04:29.638Z,0
2017-08-02T03:05:30.370Z,0
2017-08-02T03:06:31.105Z,0
2017-08-02T03:07:31.881Z,0
2017-08-02T03:08:33.051Z,0
2017-08-02T03:09:33.823Z,0
2017-08-02T03:10:34.561Z,0
2017-08-02T03:11:35.382Z,0
2017-08-02T03:12:36.124Z,0
2017-08-02T03:13:37.064Z,0
2017-08-02T03:14:37.877Z,0
2017-08-02T03:15:38.683Z,0
2017-08-02T03:16:39.503Z,0
2017-08-02T03:17:40.237Z,0
2017-08-02T03:18:41.361Z,0
2017-08-02T03:19:42.156Z,0
2017-08-02T03:20:42.956Z,0
2017-08-02T03:21:43.780Z,0
2017-08-02T03:22:44.588Z,0
2017-08-02T03:23:45.324Z,0
2017-08-02T03:24:46.137Z,0
2017-08-02T03:25:47.269Z,0
2017-08-02T03:26:48.012Z,0
2017-08-02T03:27:48.765Z,0
2017-08-02T03:28:49.600Z,0
2017-08-02T03:29:50.383Z,0
2017-08-02T03:30:51.215Z,0
2017-08-02T03:31:52.336Z,0
2017-08-02T03:32:53.062Z,0
2017-08-02T03:33:53.812Z,0
2017-08-02T03:34:54.612Z,0
2017-08-02T03:35:55.432Z,0
2017-08-02T03:36:56.254Z,5
2017-08-02T03:37:56.947Z,5
2017-08-02T03:38:57.691Z,5
2017-08-02T03:39:58.430Z,5
2017-08-02T03:40:59.279Z,5
2017-08-02T03:42:00.277Z,5
2017-08-02T03:43:01.022Z,5
2017-08-02T03:44:01.774Z,5
2017-08-02T03:45:02.524Z,5
2017-08-02T03:46:03.332Z,5
2017-08-02T03:47:04.480Z,5
2017-08-02T03:48:05.294Z,5
2017-08-02T03:49:06.032Z,5
2017-08-02T03:50:06.829Z,5
2017-08-02T03:51:07.595Z,11
2017-08-02T03:52:08.821Z,11
2017-08-02T03:53:09.631Z,11
2017-08-02T03:54:10.420Z,11
2017-08-02T03:55:12.155Z,11
2017-08-02T03:56:12.860Z,11
2017-08-02T03:57:13.907Z,11
2017-08-02T03:58:14.694Z,11
2017-08-02T03:59:15.515Z,11
2017-08-02T04:00:16.329Z,11
2017-08-02T04:01:17.078Z,11
2017-08-02T04:02:18.220Z,11
2017-08-02T04:03:19.038Z,16
2017-08-02T04:04:19.837Z,16
2017-08-02T04:05:20.585Z,16
2017-08-02T04:06:21.370Z,16
2017-08-02T04:07:22.506Z,22
2017-08-02T04:08:23.335Z,22
2017-08-02T04:09:24.113Z,22
2017-08-02T04:10:24.943Z,28
2017-08-02T04:11:25.679Z,28
2017-08-02T04:12:26.857Z,33
2017-08-02T04:13:27.646Z,33
2017-08-02T04:14:28.399Z,39
2017-08-02T04:15:29.220Z,39
2017-08-02T04:16:29.957Z,45
2017-08-02T04:17:31.003Z,45
2017-08-02T04:18:31.789Z,45
2017-08-02T04:19:32.606Z,50
2017-08-02T04:20:33.341Z,50
2017-08-02T04:21:34.108Z,50
2017-08-02T04:22:35.047Z,50
2017-08-02T04:23:35.799Z,56
2017-08-02T04:24:36.541Z,56
2017-08-02T04:25:37.353Z,61
2017-08-02T04:26:38.095Z,61
2017-08-02T04:27:38.917Z,61
2017-08-02T04:28:39.700Z,61
2017-08-02T04:29:40.788Z,61
2017-08-02T04:30:41.607Z,56
2017-08-02T04:31:42.408Z,61
2017-08-02T04:32:43.237Z,67
2017-08-02T04:33:44.070Z,73
2017-08-02T04:34:45.154Z,84
2017-08-02T04:35:45.962Z,90
2017-08-02T04:36:46.747Z,95
2017-08-02T04:37:47.485Z,95
2017-08-02T04:38:48.243Z,101
2017-08-02T04:39:49.395Z,101
2017-08-02T04:40:50.143Z,106
2017-08-02T04:41:50.904Z,112
2017-08-02T04:42:51.705Z,118
2017-08-02T04:43:52.461Z,123
2017-08-02T04:44:53.545Z,129
2017-08-02T04:45:54.300Z,135
2017-08-02T04:46:55.060Z,135
2017-08-02T04:47:55.804Z,135
2017-08-02T04:48:56.641Z,140
2017-08-02T04:49:57.860Z,140
2017-08-02T04:50:58.599Z,146
2017-08-02T04:51:59.351Z,146
2017-08-02T04:53:00.176Z,146
2017-08-02T04:54:00.926Z,146
2017-08-02T04:55:01.951Z,146
2017-08-02T04:56:02.697Z,151
2017-08-02T04:57:03.441Z,146
2017-08-02T04:58:04.182Z,146
2017-08-02T04:59:04.993Z,146
2017-08-02T05:00:06.158Z,151
2017-08-02T05:01:06.993Z,151
2017-08-02T05:02:07.745Z,157
2017-08-02T05:03:08.542Z,174
2017-08-02T05:04:09.329Z,191
2017-08-02T05:05:10.502Z,208
2017-08-02T05:06:11.308Z,219
2017-08-02T05:07:12.062Z,230
2017-08-02T05:08:12.870Z,247
2017-08-02T05:09:13.705Z,253
2017-08-02T05:10:14.938Z,264
2017-08-02T05:11:15.769Z,264
2017-08-02T05:12:16.599Z,258
2017-08-02T05:13:17.350Z,253
2017-08-02T05:14:18.088Z,225
2017-08-02T05:15:18.832Z,196
2017-08-02T05:16:19.583Z,180
2017-08-02T05:17:20.752Z,168
2017-08-02T05:18:21.497Z,163
2017-08-02T05:19:22.245Z,163
2017-08-02T05:20:23.075Z,151
2017-08-02T05:21:23.809Z,151
2017-08-02T05:22:24.951Z,157
2017-08-02T05:23:25.713Z,168
2017-08-02T05:24:26.445Z,185
2017-08-02T05:25:27.178Z,202
2017-08-02T05:26:27.919Z,230
2017-08-02T05:27:28.917Z,275
2017-08-02T05:28:29.671Z,326
2017-08-02T05:29:30.421Z,371
2017-08-02T05:30:31.178Z,393
2017-08-02T05:31:31.914Z,399
2017-08-02T05:32:32.846Z,382
2017-08-02T05:33:33.587Z,348
2017-08-02T05:34:34.337Z,326
2017-08-02T05:35:35.078Z,326
2017-08-02T05:36:35.840Z,320
2017-08-02T05:37:36.830Z,315
2017-08-02T05:38:37.636Z,303
2017-08-02T05:39:38.393Z,292
2017-08-02T05:40:39.119Z,286
2017-08-02T05:41:39.934Z,298
2017-08-02T05:42:41.074Z,309
2017-08-02T05:43:41.815Z,315
2017-08-02T05:44:42.553Z,315
2017-08-02T05:45:43.306Z,320
2017-08-02T05:46:44.125Z,331
2017-08-02T05:47:45.107Z,348
2017-08-02T05:48:45.859Z,376
2017-08-02T05:49:46.692Z,405
2017-08-02T05:50:47.497Z,427
2017-08-02T05:51:48.281Z,438
2017-08-02T05:52:49.316Z,444
2017-08-02T05:53:50.122Z,444
2017-08-02T05:54:50.872Z,444
2017-08-02T05:55:51.701Z,438
2017-08-02T05:56:52.441Z,421
2017-08-02T05:57:53.526Z,405
2017-08-02T05:58:54.351Z,376
2017-08-02T05:59:55.092Z,365
2017-08-02T06:00:55.897Z,371
2017-08-02T06:01:56.638Z,382
2017-08-02T06:02:57.379Z,405
2017-08-02T06:03:58.189Z,444
2017-08-02T06:04:59.274Z,506
2017-08-02T06:05:59.992Z,545
2017-08-02T06:07:00.819Z,551
2017-08-02T06:08:01.663Z,540
2017-08-02T06:09:02.424Z,540
2017-08-02T06:10:03.231Z,534
2017-08-02T06:11:04.033Z,540
2017-08-02T06:12:04.873Z,540
2017-08-02T06:13:05.593Z,551
2017-08-02T06:14:06.364Z,568
2017-08-02T06:15:07.572Z,579
2017-08-02T06:16:08.326Z,596
2017-08-02T06:17:09.147Z,601
2017-08-02T06:18:09.894Z,607
2017-08-02T06:19:10.645Z,607
2017-08-02T06:20:11.818Z,630
2017-08-02T06:21:12.556Z,630
2017-08-02T06:22:13.384Z,618
2017-08-02T06:23:14.134Z,601
2017-08-02T06:24:14.872Z,585
2017-08-02T06:25:16.017Z,585
2017-08-02T06:26:16.761Z,590
2017-08-02T06:27:17.537Z,585
2017-08-02T06:28:18.278Z,596
2017-08-02T06:29:19.034Z,596
2017-08-02T06:30:20.127Z,596
2017-08-02T06:31:20.945Z,613
2017-08-02T06:32:21.708Z,641
2017-08-02T06:33:22.518Z,658
2017-08-02T06:34:23.262Z,708
2017-08-02T06:35:24.363Z,759
2017-08-02T06:36:25.178Z,798
2017-08-02T06:37:25.917Z,810
2017-08-02T06:38:26.657Z,804
2017-08-02T06:39:27.407Z,804
2017-08-02T06:40:28.508Z,821
2017-08-02T06:41:29.336Z,832
2017-08-02T06:42:30.193Z,838
2017-08-02T06:43:31.021Z,838
2017-08-02T06:44:31.758Z,843
2017-08-02T06:45:32.510Z,849
2017-08-02T06:46:33.708Z,855
2017-08-02T06:47:34.511Z,866
2017-08-02T06:48:35.301Z,888
2017-08-02T06:49:36.040Z,911
2017-08-02T06:50:36.861Z,911
2017-08-02T06:51:37.805Z,916
2017-08-02T06:52:38.687Z,928
2017-08-02T06:53:39.521Z,950
2017-08-02T06:54:40.270Z,984
2017-08-02T06:55:41.103Z,1006
2017-08-02T06:56:42.401Z,1040
2017-08-02T06:57:43.468Z,1046
2017-08-02T06:58:44.274Z,1068
2017-08-02T06:59:45.088Z,1051
2017-08-02T07:00:45.890Z,1108
2017-08-02T07:01:46.644Z,1035
2017-08-02T07:02:47.536Z,1023
2017-08-02T07:03:49.652Z,990
2017-08-02T07:04:50.499Z,995
2017-08-02T07:05:51.248Z,1029
2017-08-02T07:06:52.064Z,1040
2017-08-02T07:07:52.876Z,1125
2017-08-02T07:08:53.632Z,1080
2017-08-02T07:09:54.782Z,1080
2017-08-02T07:10:55.604Z,1113
2017-08-02T07:11:56.433Z,1051
2017-08-02T07:12:57.267Z,1192
2017-08-02T07:13:58.079Z,1344
2017-08-02T07:14:59.203Z,1372
2017-08-02T07:16:00.027Z,1158
2017-08-02T07:17:00.937Z,1608
2017-08-02T07:18:01.707Z,1113
2017-08-02T07:19:02.446Z,1456
2017-08-02T07:20:03.547Z,1338
2017-08-02T07:21:04.303Z,1738
2017-08-02T07:22:05.091Z,1501
2017-08-02T07:23:05.918Z,1586
2017-08-02T07:24:06.662Z,1203
2017-08-02T07:25:07.769Z,1164
2017-08-02T07:26:08.606Z,1175
2017-08-02T07:27:09.349Z,1170
2017-08-02T07:28:10.192Z,1170
2017-08-02T07:29:11.000Z,1170
2017-08-02T07:30:11.762Z,1215
2017-08-02T07:31:12.515Z,1209
2017-08-02T07:32:13.363Z,1175
2017-08-02T07:33:14.516Z,1164
2017-08-02T07:34:15.268Z,1158
2017-08-02T07:35:16.017Z,1153
2017-08-02T07:36:16.767Z,1102
2017-08-02T07:37:17.525Z,1023
2017-08-02T07:38:18.269Z,956
2017-08-02T07:39:19.217Z,928
2017-08-02T07:40:20.039Z,933
2017-08-02T07:41:20.786Z,973
2017-08-02T07:42:21.588Z,1001
2017-08-02T07:43:22.418Z,1006
2017-08-02T07:44:23.428Z,1018
2017-08-02T07:45:24.180Z,1046
2017-08-02T07:46:24.924Z,1074
2017-08-02T07:47:25.675Z,1125
2017-08-02T07:48:26.484Z,1192
2017-08-02T07:49:27.731Z,1271
2017-08-02T07:50:28.552Z,1293
2017-08-02T07:51:29.649Z,1361
2017-08-02T07:52:30.712Z,1237
2017-08-02T07:53:31.498Z,1243
2017-08-02T07:54:32.475Z,1181
2017-08-02T07:55:33.268Z,1130
2017-08-02T07:56:34.014Z,1006
2017-08-02T07:57:34.764Z,843
2017-08-02T07:58:35.591Z,703
2017-08-02T07:59:36.671Z,618
2017-08-02T08:00:37.559Z,585
2017-08-02T08:01:38.351Z,579
2017-08-02T08:02:39.090Z,585
2017-08-02T08:03:39.844Z,568
2017-08-02T08:04:40.668Z,523
2017-08-02T08:05:41.480Z,472
2017-08-02T08:06:42.216Z,433
2017-08-02T08:07:42.975Z,421
2017-08-02T08:08:44.098Z,410
2017-08-02T08:09:44.924Z,393
2017-08-02T08:10:45.776Z,382
2017-08-02T08:11:46.494Z,376
2017-08-02T08:12:47.414Z,371
2017-08-02T08:13:48.614Z,365
2017-08-02T08:14:49.364Z,371
2017-08-02T08:15:50.109Z,376
2017-08-02T08:16:50.940Z,376
2017-08-02T08:17:51.762Z,376
2017-08-02T08:18:52.871Z,388
2017-08-02T08:19:53.657Z,405
2017-08-02T08:20:54.464Z,410
2017-08-02T08:21:55.227Z,410
2017-08-02T08:22:56.043Z,405
2017-08-02T08:23:56.789Z,405
2017-08-02T08:24:57.556Z,405
2017-08-02T08:25:58.581Z,416
2017-08-02T08:26:59.414Z,416
2017-08-02T08:28:00.262Z,405
2017-08-02T08:29:01.056Z,399
2017-08-02T08:30:01.865Z,399
2017-08-02T08:31:02.953Z,399
2017-08-02T08:32:03.689Z,388
2017-08-02T08:33:04.446Z,388
2017-08-02T08:34:05.220Z,405
2017-08-02T08:35:05.965Z,433
2017-08-02T08:36:07.114Z,466
2017-08-02T08:37:07.924Z,495
2017-08-02T08:38:08.663Z,500
2017-08-02T08:39:09.508Z,483
2017-08-02T08:40:10.261Z,455
2017-08-02T08:41:11.488Z,421
2017-08-02T08:42:12.316Z,382
2017-08-02T08:43:13.069Z,348
2017-08-02T08:44:13.866Z,286
2017-08-02T08:45:14.697Z,241
2017-08-02T08:46:15.843Z,230
2017-08-02T08:47:16.570Z,303
2017-08-02T08:48:17.311Z,483
2017-08-02T08:49:18.147Z,686
2017-08-02T08:50:18.911Z,877
2017-08-02T08:51:19.912Z,1074
2017-08-02T08:52:20.718Z,1254
2017-08-02T08:53:21.459Z,1366
2017-08-02T08:54:22.219Z,1456
2017-08-02T08:55:23.038Z,1248
2017-08-02T08:56:24.058Z,950
2017-08-02T08:57:24.886Z,826
2017-08-02T08:58:25.678Z,877
2017-08-02T08:59:26.419Z,990
2017-08-02T09:00:27.169Z,1175
2017-08-02T09:01:28.362Z,1288
2017-08-02T09:02:29.189Z,1243
2017-08-02T09:03:29.981Z,1164
2017-08-02T09:04:30.730Z,1141
2017-08-02T09:05:31.478Z,1164
2017-08-02T09:06:32.527Z,1170
2017-08-02T09:07:33.277Z,1181
2017-08-02T09:08:34.041Z,1192
2017-08-02T09:09:34.794Z,1153
2017-08-02T09:10:35.545Z,1113
2017-08-02T09:11:36.369Z,1130
2017-08-02T09:12:37.125Z,1237
2017-08-02T09:13:38.191Z,1333
2017-08-02T09:14:38.941Z,1378
2017-08-02T09:15:39.772Z,1389
2017-08-02T09:16:40.582Z,1372
2017-08-02T09:17:41.397Z,1344
2017-08-02T09:18:42.165Z,1310
2017-08-02T09:19:43.280Z,1248
2017-08-02T09:20:44.032Z,1186
2017-08-02T09:21:44.877Z,1158
2017-08-02T09:22:45.705Z,1181
2017-08-02T09:23:46.525Z,1231
2017-08-02T09:24:47.267Z,1288
2017-08-02T09:25:48.322Z,1333
2017-08-02T09:26:49.068Z,1366
2017-08-02T09:27:49.833Z,1411
2017-08-02T09:28:50.648Z,1490
2017-08-02T09:29:51.457Z,1597
2017-08-02T09:30:52.277Z,1755
2017-08-02T09:31:53.221Z,1878
2017-08-02T09:32:53.975Z,1901
2017-08-02T09:33:54.773Z,1845
2017-08-02T09:34:55.507Z,1777
2017-08-02T09:35:56.346Z,1653
2017-08-02T09:36:57.447Z,1569
2017-08-02T09:37:58.205Z,1518
2017-08-02T09:38:59.041Z,1676
2017-08-02T09:39:59.857Z,1721
2017-08-02T09:41:00.607Z,1620
2017-08-02T09:42:01.664Z,1625
2017-08-02T09:43:02.489Z,1636
2017-08-02T09:44:03.222Z,1738
2017-08-02T09:45:04.058Z,1951
2017-08-02T09:46:04.877Z,1951
2017-08-02T09:47:05.982Z,2148
2017-08-02T09:48:06.775Z,2446
2017-08-02T09:49:07.604Z,2053
2017-08-02T09:50:08.432Z,1951
2017-08-02T09:51:09.256Z,1833
2017-08-02T09:52:10.320Z,1850
2017-08-02T09:53:11.068Z,2008
2017-08-02T09:54:11.807Z,2880
2017-08-02T09:55:12.561Z,2176
2017-08-02T09:56:13.311Z,1726
2017-08-02T09:57:14.328Z,1620
2017-08-02T09:58:15.170Z,1890
2017-08-02T09:59:15.922Z,2002
2017-08-02T10:00:16.741Z,1929
2017-08-02T10:01:17.575Z,1968
2017-08-02T10:02:18.739Z,2058
2017-08-02T10:03:19.494Z,1687
2017-08-02T10:04:20.310Z,1648
2017-08-02T10:05:21.063Z,1693
2017-08-02T10:06:21.821Z,1698
2017-08-02T10:07:22.846Z,1771
2017-08-02T10:08:23.600Z,1884
2017-08-02T10:09:24.351Z,2120
2017-08-02T10:10:25.178Z,2227
2017-08-02T10:11:25.928Z,4713
2017-08-02T10:12:26.687Z,2851
2017-08-02T10:13:27.556Z,3521
2017-08-02T10:14:28.313Z,2221
2017-08-02T10:15:29.469Z,2025
2017-08-02T10:16:30.352Z,1805
2017-08-02T10:17:31.172Z,1687
2017-08-02T10:18:31.918Z,1710
2017-08-02T10:19:32.661Z,1721
2017-08-02T10:20:33.722Z,1755
2017-08-02T10:21:34.547Z,1985
2017-08-02T10:22:35.292Z,1822
2017-08-02T10:23:36.117Z,1755
2017-08-02T10:24:36.890Z,1951
2017-08-02T10:25:37.973Z,2143
2017-08-02T10:26:38.837Z,2683
2017-08-02T10:27:39.713Z,3195
2017-08-02T10:28:41.641Z,2160
2017-08-02T10:29:42.350Z,2390
2017-08-02T10:30:43.491Z,1974
2017-08-02T10:31:44.244Z,2328
2017-08-02T10:32:44.986Z,3937
2017-08-02T10:33:46.131Z,3723
2017-08-02T10:34:46.837Z,3386
2017-08-02T10:35:48.003Z,3296
2017-08-02T10:36:48.755Z,3183
2017-08-02T10:37:49.879Z,2351
2017-08-02T10:38:50.657Z,2581
2017-08-02T10:39:51.411Z,2626
2017-08-02T10:40:52.372Z,1867
2017-08-02T10:41:53.112Z,1850
2017-08-02T10:42:53.933Z,1833
2017-08-02T10:43:54.683Z,2677
2017-08-02T10:44:55.522Z,1361
2017-08-02T10:45:56.663Z,1395
2017-08-02T10:46:57.422Z,1147
2017-08-02T10:47:58.771Z,1524
2017-08-02T10:48:59.727Z,1828
2017-08-02T10:50:00.480Z,1181
2017-08-02T10:51:01.577Z,1192
2017-08-02T10:52:02.497Z,1535
2017-08-02T10:53:03.241Z,2610
2017-08-02T10:54:04.034Z,3701
2017-08-02T10:55:05.000Z,1670
2017-08-02T10:56:06.151Z,4151
2017-08-02T10:57:06.940Z,3858
2017-08-02T10:58:07.687Z,3566
2017-08-02T10:59:08.429Z,2711
2017-08-02T11:00:09.273Z,1451
2017-08-02T11:01:10.489Z,1164
2017-08-02T11:02:11.251Z,1389
2017-08-02T11:03:12.048Z,3493
2017-08-02T11:04:12.870Z,1248
2017-08-02T11:05:13.681Z,1935
2017-08-02T11:06:14.772Z,2008
2017-08-02T11:07:15.597Z,3279
2017-08-02T11:08:16.339Z,3206
2017-08-02T11:09:17.092Z,1389
2017-08-02T11:10:17.842Z,1271
2017-08-02T11:11:18.894Z,3616
2017-08-02T11:12:19.688Z,3988
2017-08-02T11:13:20.439Z,3937
2017-08-02T11:14:21.263Z,3870
2017-08-02T11:15:22.019Z,3583
2017-08-02T11:16:22.771Z,1170
2017-08-02T11:17:23.518Z,1068
2017-08-02T11:18:24.256Z,759
2017-08-02T11:19:25.356Z,1344
2017-08-02T11:20:26.058Z,3346
2017-08-02T11:21:26.803Z,3065
2017-08-02T11:22:27.639Z,1693
2017-08-02T11:23:28.471Z,3341
2017-08-02T11:24:29.599Z,3549
2017-08-02T11:25:30.421Z,3723
2017-08-02T11:26:31.242Z,2576
2017-08-02T11:27:32.012Z,1080
2017-08-02T11:28:32.827Z,736
2017-08-02T11:29:33.882Z,781
2017-08-02T11:30:34.631Z,1327
2017-08-02T11:31:35.420Z,1237
2017-08-02T11:32:36.124Z,1119
2017-08-02T11:33:36.868Z,2171
2017-08-02T11:34:37.628Z,3886
2017-08-02T11:35:38.384Z,3515
2017-08-02T11:36:39.208Z,2542
2017-08-02T11:37:40.220Z,1946
2017-08-02T11:38:41.033Z,1372
2017-08-02T11:39:41.793Z,1153
2017-08-02T11:40:42.547Z,1096
2017-08-02T11:41:43.299Z,1175
2017-08-02T11:42:44.352Z,1378
2017-08-02T11:43:45.083Z,1400
2017-08-02T11:44:45.925Z,1411
2017-08-02T11:45:46.867Z,1293
2017-08-02T11:46:47.923Z,1170
2017-08-02T11:47:49.687Z,1186
2017-08-02T11:48:50.412Z,1462
2017-08-02T11:49:51.232Z,2030
2017-08-02T11:50:52.153Z,2278
2017-08-02T11:51:52.905Z,1805
2017-08-02T11:52:53.667Z,2733
2017-08-02T11:53:54.518Z,2047
2017-08-02T11:54:55.340Z,2233
2017-08-02T11:55:56.449Z,2491
2017-08-02T11:56:57.195Z,3425
2017-08-02T11:57:57.961Z,3583
2017-08-02T11:58:58.744Z,2846
2017-08-02T11:59:59.484Z,2272
2017-08-02T12:01:00.674Z,1665
2017-08-02T12:02:01.490Z,1080
2017-08-02T12:03:02.238Z,1321
2017-08-02T12:04:02.998Z,787
2017-08-02T12:05:03.747Z,641
2017-08-02T12:06:04.871Z,1006
2017-08-02T12:07:05.623Z,3341
2017-08-02T12:08:06.454Z,1535
2017-08-02T12:09:07.238Z,2581
2017-08-02T12:10:07.987Z,2930
2017-08-02T12:11:09.044Z,3690
2017-08-02T12:12:09.787Z,4235
2017-08-02T12:13:10.551Z,3740
2017-08-02T12:14:11.313Z,2475
2017-08-02T12:15:12.122Z,1665
2017-08-02T12:16:13.285Z,2463
2017-08-02T12:17:14.088Z,3105
2017-08-02T12:18:14.921Z,2739
2017-08-02T12:19:15.682Z,2047
2017-08-02T12:20:16.433Z,2373
2017-08-02T12:21:17.190Z,2475
2017-08-02T12:22:18.187Z,2992
2017-08-02T12:23:18.957Z,1760
2017-08-02T12:24:19.768Z,961
2017-08-02T12:25:20.512Z,804
2017-08-02T12:26:21.250Z,883
2017-08-02T12:27:22.346Z,1113
2017-08-02T12:28:23.089Z,1890
2017-08-02T12:29:23.950Z,2025
2017-08-02T12:30:24.778Z,1698
2017-08-02T12:31:25.540Z,2013
2017-08-02T12:32:26.610Z,3571
2017-08-02T12:33:27.362Z,2986
2017-08-02T12:34:28.111Z,3183
2017-08-02T12:35:28.896Z,3622
2017-08-02T12:36:29.696Z,2531
2017-08-02T12:37:31.356Z,3183
2017-08-02T12:38:32.282Z,2660
2017-08-02T12:39:33.110Z,1693
2017-08-02T12:40:33.927Z,1608
2017-08-02T12:41:34.765Z,1338
2017-08-02T12:42:35.763Z,1417
2017-08-02T12:43:36.580Z,2053
2017-08-02T12:44:37.611Z,1625
2017-08-02T12:45:38.317Z,2491
2017-08-02T12:46:39.128Z,2165
2017-08-02T12:47:40.196Z,3645
2017-08-02T12:48:41.009Z,3161
2017-08-02T12:49:41.774Z,3082
2017-08-02T12:50:42.580Z,2036
2017-08-02T12:51:43.387Z,3487
2017-08-02T12:52:44.357Z,3504
2017-08-02T12:53:45.188Z,2688
2017-08-02T12:54:45.940Z,1305
2017-08-02T12:55:46.757Z,1293
2017-08-02T12:56:47.506Z,1462
2017-08-02T12:57:48.654Z,1822
2017-08-02T12:58:49.391Z,3386
2017-08-02T12:59:50.211Z,2835
2017-08-02T13:00:50.980Z,2908
2017-08-02T13:01:51.728Z,3453
2017-08-02T13:02:52.558Z,3358
2017-08-02T13:03:53.309Z,2913
2017-08-02T13:04:54.525Z,3217
2017-08-02T13:05:55.269Z,2283
2017-08-02T13:06:56.023Z,1254
2017-08-02T13:07:56.857Z,933
2017-08-02T13:08:57.641Z,1198
2017-08-02T13:09:58.376Z,2047
2017-08-02T13:10:59.481Z,3543
2017-08-02T13:12:00.194Z,3538
2017-08-02T13:13:00.890Z,3386
2017-08-02T13:14:01.639Z,3442
2017-08-02T13:15:02.388Z,3459
2017-08-02T13:16:03.136Z,3391
2017-08-02T13:17:04.229Z,3380
2017-08-02T13:18:05.075Z,3279
2017-08-02T13:19:06.130Z,3240
2017-08-02T13:20:06.923Z,3189
2017-08-02T13:21:07.682Z,3110
2017-08-02T13:22:08.740Z,2801
2017-08-02T13:23:09.493Z,2666
2017-08-02T13:24:10.253Z,2908
2017-08-02T13:25:10.998Z,2885
2017-08-02T13:26:11.811Z,2576
2017-08-02T13:27:12.935Z,2846
2017-08-02T13:28:13.732Z,3043
2017-08-02T13:29:14.577Z,2936
2017-08-02T13:30:15.332Z,3330
2017-08-02T13:31:16.159Z,3026
2017-08-02T13:32:17.256Z,1102
2017-08-02T13:33:18.015Z,1473
2017-08-02T13:34:18.824Z,2002
2017-08-02T13:35:19.580Z,1816
2017-08-02T13:36:20.367Z,2778
2017-08-02T13:37:21.108Z,3138
2017-08-02T13:38:22.166Z,3071
2017-08-02T13:39:22.962Z,3127
2017-08-02T13:40:23.716Z,2992
2017-08-02T13:41:24.519Z,2913
2017-08-02T13:42:25.332Z,3054
2017-08-02T13:43:26.154Z,3082
2017-08-02T13:44:27.409Z,2986
2017-08-02T13:45:28.189Z,2919
2017-08-02T13:46:29.038Z,2908
2017-08-02T13:47:29.756Z,2896
2017-08-02T13:48:30.655Z,2930
2017-08-02T13:49:31.872Z,2829
2017-08-02T13:50:32.718Z,2851
2017-08-02T13:51:33.473Z,2829
2017-08-02T13:52:34.224Z,2896
2017-08-02T13:53:35.032Z,2790
2017-08-02T13:54:36.110Z,2986
2017-08-02T13:55:36.883Z,2070
2017-08-02T13:56:37.694Z,2660
2017-08-02T13:57:38.436Z,2086
2017-08-02T13:58:39.201Z,1271
2017-08-02T13:59:40.378Z,1428
2017-08-02T14:00:41.201Z,1327
2017-08-02T14:01:41.953Z,1333
2017-08-02T14:02:42.876Z,1288
2017-08-02T14:03:43.665Z,1423